Time;durP1;ratioP1;P1;durP2;ratioP2;P2;SDS_P1;SDS_P2;PMS_P1;PMS_P2;Temp;Humidity;BMP_temperature;BMP_pressure;BME280_temperature;BME280_humidity;BME280_pressure;Samples;Min_cycle;Max_cycle;Signal;HPM_P1;HPM_P2
2021/11/24 00:01:23;;;;;;;12.45;6.18;;;6.40;99.90;;;;;;5035505;28;20041;-72
2021/11/24 00:03:49;;;;;;;11.20;5.53;;;6.30;99.90;;;;;;5035584;28;20494;-72
2021/11/24 00:06:15;;;;;;;10.45;6.10;;;6.30;99.90;;;;;;5035794;28;20040;-72
2021/11/24 00:08:40;;;;;;;13.02;6.88;;;6.30;99.90;;;;;;5035395;28;20030;-73
2021/11/24 00:11:06;;;;;;;11.25;6.38;;;6.30;99.90;;;;;;5035439;28;20018;-71
2021/11/24 00:13:32;;;;;;;11.30;5.88;;;6.20;99.90;;;;;;5035375;28;20080;-74
2021/11/24 00:15:57;;;;;;;11.48;6.43;;;6.00;99.90;;;;;;5035633;28;20063;-73
2021/11/24 00:18:23;;;;;;;15.75;7.03;;;6.00;99.90;;;;;;5035300;28;20044;-74
2021/11/24 00:20:49;;;;;;;12.85;7.05;;;6.10;99.90;;;;;;5035539;28;20033;-70
2021/11/24 00:23:14;;;;;;;18.73;6.80;;;5.80;99.90;;;;;;5035762;28;20112;-72
2021/11/24 00:25:41;;;;;;;11.30;6.65;;;5.70;99.90;;;;;;5035171;28;20021;-73
2021/11/24 00:28:07;;;;;;;12.27;6.63;;;5.80;99.90;;;;;;5035144;28;20086;-73
2021/11/24 00:30:32;;;;;;;12.13;6.65;;;5.90;99.90;;;;;;5035328;28;20021;-71
2021/11/24 00:32:58;;;;;;;13.75;6.55;;;5.90;99.90;;;;;;5035067;28;20492;-71
2021/11/24 00:35:24;;;;;;;16.05;6.90;;;5.90;99.90;;;;;;5034984;28;20030;-72
2021/11/24 00:37:49;;;;;;;11.95;6.07;;;6.00;99.90;;;;;;5034965;28;20024;-71
2021/11/24 00:40:15;;;;;;;11.50;5.97;;;6.10;99.90;;;;;;5035417;28;20021;-71
2021/11/24 00:42:41;;;;;;;11.68;6.20;;;6.10;99.90;;;;;;5034853;28;20398;-71
2021/11/24 00:45:07;;;;;;;15.77;7.40;;;6.00;99.90;;;;;;5035095;28;20467;-74
2021/11/24 00:47:33;;;;;;;13.00;6.63;;;5.90;99.90;;;;;;5035326;28;20091;-72
2021/11/24 00:49:58;;;;;;;13.98;7.18;;;5.90;99.90;;;;;;5034663;28;20471;-71
2021/11/24 00:52:24;;;;;;;13.07;6.95;;;5.90;99.90;;;;;;5034922;28;20029;-72
2021/11/24 00:54:50;;;;;;;14.75;7.35;;;5.80;99.90;;;;;;5034608;28;20071;-73
2021/11/24 00:57:15;;;;;;;13.25;7.03;;;5.80;99.90;;;;;;5034530;28;20088;-72
2021/11/24 00:59:41;;;;;;;12.52;6.85;;;5.80;99.90;;;;;;5034314;28;20112;-70
2021/11/24 01:02:07;;;;;;;12.35;6.80;;;5.60;99.90;;;;;;5034762;28;20075;-75
2021/11/24 01:04:33;;;;;;;13.18;6.47;;;5.60;99.90;;;;;;5034503;28;20032;-72
2021/11/24 01:06:58;;;;;;;10.55;6.63;;;5.80;99.90;;;;;;5034927;28;20490;-72
2021/11/24 01:09:24;;;;;;;14.98;7.30;;;6.00;99.90;;;;;;5034175;28;20128;-73
2021/11/24 01:11:50;;;;;;;14.00;7.10;;;5.80;99.90;;;;;;5034288;28;20021;-71
2021/11/24 01:14:16;;;;;;;13.00;7.72;;;5.70;99.90;;;;;;5034240;28;20084;-72
2021/11/24 01:16:44;;;;;;;12.98;7.38;;;5.60;99.90;;;;;;5034478;28;20018;-72
2021/11/24 01:19:10;;;;;;;12.45;7.57;;;5.60;99.90;;;;;;5034167;28;20036;-72
2021/11/24 01:21:35;;;;;;;13.73;7.63;;;5.60;99.90;;;;;;5034110;28;20021;-72
2021/11/24 01:24:01;;;;;;;16.98;6.97;;;5.50;99.90;;;;;;5034076;28;20488;-71
2021/11/24 01:26:27;;;;;;;17.52;8.55;;;5.50;99.90;;;;;;5033963;28;20479;-72
2021/11/24 01:28:52;;;;;;;15.60;8.07;;;5.50;99.90;;;;;;5033889;28;20021;-72
2021/11/24 01:31:19;;;;;;;14.20;7.63;;;5.50;99.90;;;;;;5034208;28;20100;-73
2021/11/24 01:33:44;;;;;;;16.15;7.80;;;5.50;99.90;;;;;;5034152;28;20021;-73
2021/11/24 01:36:10;;;;;;;16.48;8.18;;;5.30;99.90;;;;;;5034142;28;20365;-75
2021/11/24 01:38:36;;;;;;;16.20;8.07;;;5.30;99.90;;;;;;5034326;28;20032;-72
2021/11/24 01:41:02;;;;;;;16.88;8.63;;;5.20;99.90;;;;;;5034030;28;20031;-72
2021/11/24 01:43:27;;;;;;;17.88;8.95;;;5.20;99.90;;;;;;5033724;28;20399;-71
2021/11/24 01:45:53;;;;;;;14.95;8.30;;;5.20;99.90;;;;;;5033730;28;20088;-73
2021/11/24 01:48:19;;;;;;;16.63;9.13;;;5.20;99.90;;;;;;5033902;28;20030;-72
2021/11/24 01:50:45;;;;;;;15.45;8.10;;;5.20;99.90;;;;;;5033766;28;20025;-72
2021/11/24 01:53:10;;;;;;;16.85;8.65;;;5.20;99.90;;;;;;5033804;28;20456;-72
2021/11/24 01:55:36;;;;;;;13.15;8.27;;;5.20;99.90;;;;;;5033513;28;20510;-73
2021/11/24 01:58:03;;;;;;;14.75;8.38;;;5.30;99.90;;;;;;5033689;28;20076;-72
2021/11/24 02:00:32;;;;;;;16.38;8.68;;;5.40;99.90;;;;;;5033256;28;20059;-73
2021/11/24 02:02:59;;;;;;;16.58;9.32;;;5.40;99.90;;;;;;5033679;28;20060;-71
2021/11/24 02:05:24;;;;;;;14.48;9.15;;;5.30;99.90;;;;;;5033358;28;20475;-71
2021/11/24 02:07:51;;;;;;;13.85;8.05;;;5.20;99.90;;;;;;5033384;28;20032;-73
2021/11/24 02:10:20;;;;;;;15.55;9.15;;;5.20;99.90;;;;;;5033282;28;20484;-74
2021/11/24 02:12:46;;;;;;;15.23;8.75;;;5.30;99.90;;;;;;5033578;28;20060;-72
2021/11/24 02:15:12;;;;;;;13.05;7.78;;;5.20;99.90;;;;;;5033278;28;20448;-71
2021/11/24 02:17:38;;;;;;;14.23;7.72;;;5.30;99.90;;;;;;5033264;28;20049;-71
2021/11/24 02:20:04;;;;;;;13.73;8.07;;;5.50;99.90;;;;;;5033772;28;20097;-72
2021/11/24 02:22:30;;;;;;;14.88;8.52;;;5.60;99.90;;;;;;5032658;28;20120;-72
2021/11/24 02:24:56;;;;;;;12.57;8.15;;;5.70;99.90;;;;;;5033478;28;20026;-72
2021/11/24 02:27:22;;;;;;;16.95;9.00;;;5.80;99.90;;;;;;5033175;28;20468;-71
2021/11/24 02:29:47;;;;;;;16.48;9.25;;;5.70;99.90;;;;;;5033044;28;20495;-71
2021/11/24 02:32:15;;;;;;;23.67;11.90;;;5.60;99.90;;;;;;5033144;28;20531;-71
2021/11/24 02:34:41;;;;;;;18.80;10.73;;;5.50;99.90;;;;;;5033335;28;20021;-72
2021/11/24 02:37:07;;;;;;;32.35;18.60;;;5.40;99.90;;;;;;5033313;28;20029;-73
2021/11/24 02:39:33;;;;;;;21.33;12.48;;;5.50;99.90;;;;;;5033586;28;20018;-71
2021/11/24 02:41:59;;;;;;;25.80;13.43;;;5.50;99.90;;;;;;5033051;28;20029;-72
2021/11/24 02:44:30;;;;;;;27.65;17.88;;;5.30;99.90;;;;;;5033001;28;20021;-72
2021/11/24 02:47:11;;;;;;;29.20;17.83;;;5.10;99.90;;;;;;5032931;28;20506;-72
2021/11/24 02:49:40;;;;;;;25.23;14.63;;;5.10;99.90;;;;;;5032902;28;20096;-74
2021/11/24 02:52:06;;;;;;;42.83;23.75;;;5.30;99.90;;;;;;5032885;28;20030;-72
2021/11/24 02:54:32;;;;;;;31.52;18.90;;;5.40;99.90;;;;;;5033190;28;20018;-72
2021/11/24 02:57:00;;;;;;;42.15;26.58;;;5.50;99.90;;;;;;5033060;28;20033;-71
2021/11/24 02:59:25;;;;;;;22.40;12.63;;;5.50;99.90;;;;;;5032825;28;20201;-72
2021/11/24 03:01:51;;;;;;;21.85;12.85;;;5.40;99.90;;;;;;5032379;28;20482;-72
2021/11/24 03:04:17;;;;;;;34.28;20.30;;;5.50;99.90;;;;;;5033079;28;20036;-71
2021/11/24 03:06:42;;;;;;;23.92;12.02;;;5.50;99.90;;;;;;5032808;28;20068;-73
2021/11/24 03:09:08;;;;;;;20.35;11.90;;;5.50;99.90;;;;;;5032707;28;20514;-73
2021/11/24 03:11:34;;;;;;;22.42;11.48;;;5.40;99.90;;;;;;5032780;28;20391;-73
2021/11/24 03:13:59;;;;;;;24.30;14.15;;;5.30;99.90;;;;;;5033004;28;20503;-72
2021/11/24 03:16:25;;;;;;;20.83;11.43;;;5.30;99.90;;;;;;5032750;28;20028;-71
2021/11/24 03:18:51;;;;;;;18.88;10.77;;;5.20;99.90;;;;;;5032939;28;20018;-73
2021/11/24 03:21:16;;;;;;;18.13;10.98;;;5.10;99.90;;;;;;5032889;28;20479;-72
2021/11/24 03:23:42;;;;;;;17.38;12.20;;;5.20;99.90;;;;;;5032633;28;20092;-72
2021/11/24 03:26:08;;;;;;;19.33;12.05;;;5.20;99.90;;;;;;5032611;28;20026;-71
2021/11/24 03:28:33;;;;;;;17.55;11.05;;;5.30;99.90;;;;;;5032752;28;20017;-71
2021/11/24 03:30:59;;;;;;;18.45;10.80;;;5.40;99.90;;;;;;5033116;28;20029;-72
2021/11/24 03:33:25;;;;;;;17.70;11.20;;;5.50;99.90;;;;;;5033232;28;20021;-71
2021/11/24 03:35:50;;;;;;;21.38;11.63;;;5.60;99.90;;;;;;5036102;28;20495;-73
2021/11/24 03:38:16;;;;;;;18.15;10.18;;;5.50;99.90;;;;;;5036596;28;20026;-71
2021/11/24 03:40:42;;;;;;;18.77;10.88;;;5.50;99.90;;;;;;5036028;28;20025;-72
2021/11/24 03:43:07;;;;;;;19.05;11.30;;;5.40;99.90;;;;;;5035944;28;20024;-70
2021/11/24 03:45:35;;;;;;;21.52;11.52;;;5.20;99.90;;;;;;5035931;28;20391;-72
2021/11/24 03:48:03;;;;;;;21.77;14.18;;;5.20;99.90;;;;;;5035892;28;20108;-72
2021/11/24 03:50:29;;;;;;;16.50;9.93;;;5.00;99.90;;;;;;5035763;28;20030;-71
2021/11/24 03:52:54;;;;;;;18.15;9.77;;;5.00;99.90;;;;;;5035814;28;20095;-72
2021/11/24 03:55:21;;;;;;;15.45;9.55;;;5.10;99.90;;;;;;5036024;28;20026;-72
2021/11/24 03:57:46;;;;;;;17.45;9.60;;;5.20;99.90;;;;;;5035645;28;20021;-72
2021/11/24 04:00:18;;;;;;;15.63;9.63;;;5.30;99.90;;;;;;5035698;28;20045;-73
2021/11/24 04:02:44;;;;;;;20.25;14.50;;;5.30;99.90;;;;;;5036268;28;20022;-73
2021/11/24 04:05:11;;;;;;;21.67;14.20;;;5.30;99.90;;;;;;5036157;28;20075;-72
2021/11/24 04:07:36;;;;;;;24.45;15.32;;;5.30;99.90;;;;;;5035575;28;20028;-72
2021/11/24 04:10:04;;;;;;;24.67;16.98;;;5.20;99.90;;;;;;5036001;28;20033;-71
2021/11/24 04:12:29;;;;;;;28.48;15.82;;;5.10;99.90;;;;;;5035422;28;20123;-71
2021/11/24 04:14:55;;;;;;;26.10;15.25;;;4.90;99.90;;;;;;5035441;28;20123;-73
2021/11/24 04:17:21;;;;;;;27.85;15.95;;;4.70;99.90;;;;;;5035667;28;20022;-71
2021/11/24 04:19:48;;;;;;;25.63;15.07;;;4.60;99.90;;;;;;5035874;28;20025;-71
2021/11/24 04:22:13;;;;;;;24.17;13.85;;;4.50;99.90;;;;;;5035337;28;20395;-71
2021/11/24 04:24:40;;;;;;;20.90;12.48;;;4.60;99.90;;;;;;5035213;28;20044;-69
2021/11/24 04:27:06;;;;;;;22.75;12.45;;;4.80;99.90;;;;;;5035178;28;20018;-72
2021/11/24 04:29:31;;;;;;;20.15;12.30;;;5.00;99.90;;;;;;5035052;28;20034;-70
2021/11/24 04:31:57;;;;;;;23.80;13.32;;;5.10;99.90;;;;;;5035107;28;20024;-69
2021/11/24 04:34:23;;;;;;;30.27;19.33;;;5.10;99.90;;;;;;5035045;28;20029;-71
2021/11/24 04:36:48;;;;;;;28.80;16.70;;;4.90;99.90;;;;;;5035015;28;20382;-71
2021/11/24 04:39:15;;;;;;;22.80;14.43;;;4.80;99.90;;;;;;5034977;28;20091;-70
2021/11/24 04:41:40;;;;;;;23.95;13.30;;;4.80;99.90;;;;;;5034877;28;20025;-71
2021/11/24 04:44:06;;;;;;;17.48;11.10;;;4.90;99.90;;;;;;5034410;28;20026;-72
2021/11/24 04:46:32;;;;;;;16.35;9.02;;;4.80;99.90;;;;;;5035079;28;20021;-69
2021/11/24 04:48:58;;;;;;;18.17;9.73;;;4.80;99.90;;;;;;5034737;28;20036;-72
2021/11/24 04:51:24;;;;;;;15.82;9.43;;;4.80;99.90;;;;;;5034714;28;20499;-71
2021/11/24 04:53:50;;;;;;;24.45;15.50;;;4.70;99.90;;;;;;5034683;28;20028;-73
2021/11/24 04:56:16;;;;;;;17.02;11.48;;;4.70;99.90;;;;;;5034598;28;20499;-71
2021/11/24 04:58:53;;;;;;;17.88;11.32;;;4.60;99.90;;;;;;5034530;28;20026;-74
2021/11/24 05:01:20;;;;;;;20.33;10.57;;;4.60;99.90;;;;;;5033011;28;20241;-71
2021/11/24 05:03:46;;;;;;;21.77;11.90;;;4.70;99.90;;;;;;5034749;28;20057;-72
2021/11/24 05:06:12;;;;;;;15.73;9.65;;;4.70;99.90;;;;;;5034662;28;20075;-70
2021/11/24 05:08:39;;;;;;;17.85;11.45;;;4.70;99.90;;;;;;5034305;28;20507;-72
2021/11/24 05:11:07;;;;;;;17.73;10.18;;;4.70;99.90;;;;;;5034607;28;20026;-70
2021/11/24 05:13:32;;;;;;;18.45;10.98;;;4.70;99.90;;;;;;5034317;28;20026;-73
2021/11/24 05:16:02;;;;;;;15.63;10.18;;;4.70;99.90;;;;;;5034264;28;20040;-74
2021/11/24 05:18:33;;;;;;;30.40;15.95;;;4.50;99.90;;;;;;5032940;28;20399;-73
2021/11/24 05:21:04;;;;;;;66.22;32.45;;;4.60;99.90;;;;;;5034409;28;20079;-74
2021/11/24 05:23:36;;;;;;;;;;;4.60;99.90;;;;;;5034860;28;20030;-72
2021/11/24 05:26:02;;;;;;;23.08;15.13;;;4.50;99.90;;;;;;5034406;28;19905;-70
2021/11/24 05:28:28;;;;;;;78.20;42.65;;;4.60;99.90;;;;;;5033978;28;20025;-73
2021/11/24 05:30:54;;;;;;;36.08;22.50;;;4.50;99.90;;;;;;5034426;28;20029;-71
2021/11/24 05:33:19;;;;;;;76.25;40.30;;;4.60;99.90;;;;;;5033920;28;20025;-71
2021/11/24 05:35:45;;;;;;;28.90;19.23;;;4.60;99.90;;;;;;5033887;28;20056;-72
2021/11/24 05:38:10;;;;;;;17.80;10.23;;;4.50;99.90;;;;;;5033857;28;20010;-71
2021/11/24 05:40:36;;;;;;;13.48;8.98;;;4.50;99.90;;;;;;5034029;28;20030;-73
2021/11/24 05:43:02;;;;;;;17.85;9.60;;;4.50;99.90;;;;;;5033977;28;20032;-70
2021/11/24 05:45:39;;;;;;;16.10;9.95;;;4.40;99.90;;;;;;5033967;28;20426;-71
2021/11/24 05:48:13;;;;;;;19.13;10.77;;;4.30;99.90;;;;;;5033962;28;20025;-72
2021/11/24 05:50:39;;;;;;;18.13;12.18;;;4.30;99.90;;;;;;5034095;28;20467;-72
2021/11/24 05:53:05;;;;;;;16.58;10.10;;;4.30;99.90;;;;;;5034370;28;20384;-71
2021/11/24 05:55:31;;;;;;;22.60;12.50;;;4.20;99.90;;;;;;5033226;28;20399;-72
2021/11/24 05:57:57;;;;;;;15.68;9.95;;;4.30;99.90;;;;;;5033074;28;20024;-72
2021/11/24 06:00:23;;;;;;;17.55;11.05;;;4.30;99.90;;;;;;5033480;28;20049;-73
2021/11/24 06:02:49;;;;;;;28.90;13.70;;;4.10;99.90;;;;;;5033474;28;20035;-70
2021/11/24 06:05:15;;;;;;;27.08;14.48;;;4.10;99.90;;;;;;5033430;28;20398;-70
2021/11/24 06:07:41;;;;;;;24.85;14.75;;;4.20;99.90;;;;;;5033394;28;20033;-73
2021/11/24 06:10:09;;;;;;;22.90;12.73;;;4.10;99.90;;;;;;5033261;28;20091;-71
2021/11/24 06:12:35;;;;;;;22.25;12.93;;;4.00;99.90;;;;;;5033338;28;20021;-74
2021/11/24 06:15:01;;;;;;;20.33;13.27;;;4.10;99.90;;;;;;5033295;28;20078;-71
2021/11/24 06:17:27;;;;;;;21.88;12.70;;;4.10;99.90;;;;;;5033194;28;20025;-70
2021/11/24 06:19:53;;;;;;;18.77;11.18;;;4.10;99.90;;;;;;5033235;28;20033;-72
2021/11/24 06:22:19;;;;;;;22.90;12.45;;;4.10;99.90;;;;;;5033198;28;20480;-71
2021/11/24 06:24:45;;;;;;;21.83;12.43;;;4.20;99.90;;;;;;5033459;28;20395;-71
2021/11/24 06:27:11;;;;;;;23.23;12.05;;;4.20;99.90;;;;;;5033177;28;20025;-72
2021/11/24 06:29:36;;;;;;;21.70;12.77;;;4.10;99.90;;;;;;5033035;28;20021;-72
2021/11/24 06:32:03;;;;;;;22.08;12.25;;;4.20;99.90;;;;;;5033115;28;20025;-71
2021/11/24 06:34:28;;;;;;;27.58;13.18;;;4.20;99.90;;;;;;5033602;28;20029;-71
2021/11/24 06:36:55;;;;;;;23.77;12.60;;;4.20;99.90;;;;;;5033074;28;20021;-71
2021/11/24 06:39:22;;;;;;;23.38;12.98;;;4.30;99.90;;;;;;5033078;28;20025;-72
2021/11/24 06:41:48;;;;;;;24.48;13.88;;;4.40;99.90;;;;;;5032958;28;20440;-71
2021/11/24 06:44:14;;;;;;;23.98;13.43;;;4.20;99.90;;;;;;5032964;28;20068;-71
2021/11/24 06:46:40;;;;;;;28.48;14.45;;;4.20;99.90;;;;;;5033038;28;20064;-73
2021/11/24 06:49:07;;;;;;;20.70;11.95;;;4.20;99.90;;;;;;5033150;28;20057;-74
2021/11/24 06:51:32;;;;;;;23.23;12.27;;;4.30;99.90;;;;;;5032944;28;20025;-71
2021/11/24 06:53:59;;;;;;;23.90;13.18;;;4.30;99.90;;;;;;5032943;28;20506;-72
2021/11/24 06:56:25;;;;;;;27.00;12.93;;;4.40;99.90;;;;;;5033151;28;20468;-72
2021/11/24 06:58:50;;;;;;;22.48;12.82;;;4.50;99.90;;;;;;5032786;28;20022;-73
2021/11/24 07:01:16;;;;;;;27.63;14.30;;;4.50;99.90;;;;;;5032641;28;20068;-70
2021/11/24 07:03:42;;;;;;;32.47;19.17;;;4.40;99.90;;;;;;5032824;28;20028;-73
2021/11/24 07:06:07;;;;;;;39.35;23.88;;;4.00;99.90;;;;;;5033081;28;20026;-72
2021/11/24 07:08:33;;;;;;;36.17;21.55;;;3.80;99.90;;;;;;5035371;28;20144;-73
2021/11/24 07:10:59;;;;;;;39.00;23.70;;;3.70;99.90;;;;;;5036519;28;20033;-73
2021/11/24 07:13:24;;;;;;;38.97;20.73;;;3.70;99.90;;;;;;5036575;28;20481;-73
2021/11/24 07:15:50;;;;;;;27.52;17.40;;;3.60;99.90;;;;;;5036515;28;20472;-71
2021/11/24 07:18:16;;;;;;;32.20;18.27;;;3.80;99.90;;;;;;5036460;28;20020;-71
2021/11/24 07:20:42;;;;;;;28.33;14.57;;;4.00;99.90;;;;;;5036400;28;20452;-73
2021/11/24 07:23:08;;;;;;;21.92;12.18;;;4.00;99.90;;;;;;5036346;28;20013;-71
2021/11/24 07:25:34;;;;;;;21.08;13.35;;;4.00;99.90;;;;;;5036588;28;20032;-72
2021/11/24 07:28:00;;;;;;;22.45;14.30;;;4.00;99.90;;;;;;5036543;28;20022;-72
2021/11/24 07:30:26;;;;;;;23.65;14.27;;;3.80;99.90;;;;;;5036471;28;20033;-72
2021/11/24 07:32:51;;;;;;;26.15;14.38;;;3.80;99.90;;;;;;5036187;28;20061;-73
2021/11/24 07:35:17;;;;;;;32.70;14.10;;;3.90;99.90;;;;;;5036178;28;20155;-72
2021/11/24 07:37:43;;;;;;;25.85;14.00;;;4.00;99.90;;;;;;5036657;28;20017;-71
2021/11/24 07:40:10;;;;;;;25.67;13.95;;;3.90;99.90;;;;;;5036032;28;20029;-71
2021/11/24 07:42:37;;;;;;;24.33;13.25;;;3.90;99.90;;;;;;5036034;28;20100;-72
2021/11/24 07:45:03;;;;;;;22.73;14.70;;;4.00;99.90;;;;;;5036035;28;20037;-73
2021/11/24 07:47:29;;;;;;;21.15;13.98;;;4.00;99.90;;;;;;5035864;28;20021;-73
2021/11/24 07:49:55;;;;;;;22.42;14.18;;;4.00;99.90;;;;;;5035810;28;20034;-72
2021/11/24 07:52:21;;;;;;;26.02;14.80;;;3.90;99.90;;;;;;5035889;28;20076;-72
2021/11/24 07:54:47;;;;;;;27.65;16.55;;;3.90;99.90;;;;;;5035786;28;20029;-72
2021/11/24 07:57:13;;;;;;;32.38;19.50;;;3.90;99.90;;;;;;5035732;28;20104;-73
2021/11/24 07:59:40;;;;;;;36.20;20.92;;;3.90;99.90;;;;;;5035464;28;20060;-73
2021/11/24 08:02:06;;;;;;;40.78;21.52;;;3.80;99.90;;;;;;5035629;28;20030;-72
2021/11/24 08:04:32;;;;;;;41.10;20.80;;;3.80;99.90;;;;;;5034331;28;20080;-71
2021/11/24 08:07:00;;;;;;;30.63;17.35;;;3.80;99.90;;;;;;5035500;28;20104;-69
2021/11/24 08:09:26;;;;;;;29.60;17.85;;;3.90;99.90;;;;;;5035425;28;20036;-71
2021/11/24 08:11:53;;;;;;;26.17;15.30;;;3.90;99.90;;;;;;5035471;28;20097;-71
2021/11/24 08:14:19;;;;;;;22.52;14.13;;;4.00;99.90;;;;;;5035665;28;20052;-70
2021/11/24 08:16:44;;;;;;;26.08;15.90;;;4.10;99.90;;;;;;5035384;28;20014;-72
2021/11/24 08:19:10;;;;;;;28.88;17.52;;;4.10;99.90;;;;;;5034540;28;20029;-72
2021/11/24 08:21:35;;;;;;;27.55;15.93;;;4.10;99.90;;;;;;5035565;28;20109;-73
2021/11/24 08:24:02;;;;;;;27.63;16.02;;;4.10;99.90;;;;;;5035229;28;20060;-72
2021/11/24 08:26:28;;;;;;;27.10;15.88;;;4.10;99.90;;;;;;5035225;28;20024;-75
2021/11/24 08:28:54;;;;;;;28.75;16.20;;;4.20;99.90;;;;;;5035111;28;20030;-72
2021/11/24 08:31:20;;;;;;;26.52;16.23;;;4.20;99.90;;;;;;5035155;28;20022;-71
2021/11/24 08:33:46;;;;;;;24.70;15.50;;;4.30;99.90;;;;;;5035354;28;20017;-72
2021/11/24 08:36:12;;;;;;;25.35;15.30;;;4.30;99.90;;;;;;5035054;28;20033;-74
2021/11/24 08:38:39;;;;;;;23.52;15.02;;;4.30;99.90;;;;;;5035284;28;20021;-73
2021/11/24 08:41:05;;;;;;;26.50;14.70;;;4.30;99.90;;;;;;5034929;28;20112;-73
2021/11/24 08:43:32;;;;;;;23.70;15.02;;;4.40;99.90;;;;;;5034923;28;20025;-72
2021/11/24 08:45:58;;;;;;;22.75;13.75;;;4.50;99.90;;;;;;5035136;28;20022;-70
2021/11/24 08:48:24;;;;;;;23.52;15.02;;;4.50;99.90;;;;;;5035096;28;20485;-72
2021/11/24 08:50:50;;;;;;;28.17;15.95;;;4.60;99.90;;;;;;5034678;28;20025;-73
2021/11/24 08:53:16;;;;;;;24.50;15.40;;;4.60;99.90;;;;;;5034964;28;20028;-72
2021/11/24 08:55:41;;;;;;;23.55;14.48;;;4.60;99.90;;;;;;5034688;28;20493;-74
2021/11/24 08:58:07;;;;;;;26.63;15.57;;;4.70;99.90;;;;;;5034471;28;20049;-69
2021/11/24 09:00:33;;;;;;;26.33;16.15;;;4.70;99.90;;;;;;5034732;28;20100;-72
2021/11/24 09:02:59;;;;;;;29.60;16.52;;;4.70;99.90;;;;;;5034492;28;20400;-74
2021/11/24 09:05:24;;;;;;;30.52;17.52;;;4.80;99.90;;;;;;5034750;28;20018;-74
2021/11/24 09:07:51;;;;;;;30.88;16.40;;;4.80;99.90;;;;;;5034934;28;20026;-71
2021/11/24 09:10:17;;;;;;;29.38;17.95;;;4.90;99.90;;;;;;5034295;28;20416;-73
2021/11/24 09:12:43;;;;;;;27.65;16.00;;;5.00;99.90;;;;;;5034343;28;20498;-71
2021/11/24 09:15:09;;;;;;;29.85;17.17;;;5.20;99.90;;;;;;5034228;28;20013;-72
2021/11/24 09:17:35;;;;;;;26.10;16.95;;;5.60;99.90;;;;;;5034255;28;20034;-71
2021/11/24 09:20:00;;;;;;;30.15;17.85;;;5.90;99.90;;;;;;5034203;28;20403;-73
2021/11/24 09:22:26;;;;;;;31.65;19.45;;;6.20;99.90;;;;;;5034165;28;20030;-71
2021/11/24 09:24:55;;;;;;;33.72;19.52;;;6.40;99.90;;;;;;5034401;28;20026;-72
2021/11/24 09:27:43;;;;;;;34.35;20.65;;;6.40;99.90;;;;;;5034035;28;20021;-72
2021/11/24 09:30:09;;;;;;;31.40;19.35;;;6.60;99.90;;;;;;5034209;28;20021;-73
2021/11/24 09:32:35;;;;;;;29.88;18.40;;;6.70;99.90;;;;;;5034471;28;20045;-73
2021/11/24 09:35:03;;;;;;;30.77;19.50;;;6.80;99.90;;;;;;5034172;28;20014;-71
2021/11/24 09:37:28;;;;;;;33.70;18.75;;;6.90;99.90;;;;;;5033878;28;20017;-71
2021/11/24 09:39:54;;;;;;;34.53;18.85;;;6.90;99.90;;;;;;5034124;28;20044;-74
2021/11/24 09:42:23;;;;;;;32.33;18.83;;;6.90;99.90;;;;;;5033834;28;20025;-75
2021/11/24 09:44:49;;;;;;;30.70;17.77;;;6.90;99.90;;;;;;5033743;28;20013;-73
2021/11/24 09:47:15;;;;;;;29.65;17.63;;;6.90;99.90;;;;;;5033737;28;20037;-71
2021/11/24 09:49:46;;;;;;;29.90;17.30;;;6.90;99.90;;;;;;5033816;28;20030;-72
2021/11/24 09:52:12;;;;;;;30.10;18.58;;;6.90;99.90;;;;;;5033944;28;20029;-73
2021/11/24 09:54:39;;;;;;;27.73;17.45;;;7.00;99.90;;;;;;5033858;28;20017;-75
2021/11/24 09:57:05;;;;;;;30.55;20.63;;;7.00;99.90;;;;;;5033710;28;20399;-75
2021/11/24 09:59:30;;;;;;;28.58;17.35;;;7.00;99.90;;;;;;5034114;28;20018;-74
2021/11/24 10:01:56;;;;;;;34.13;17.70;;;7.00;99.90;;;;;;5033102;28;20049;-73
2021/11/24 10:04:22;;;;;;;29.85;17.60;;;7.00;99.90;;;;;;5033736;28;20049;-69
2021/11/24 10:06:49;;;;;;;29.17;17.00;;;6.90;99.90;;;;;;5033431;28;20030;-73
2021/11/24 10:09:14;;;;;;;29.83;17.38;;;7.00;99.90;;;;;;5033341;28;20491;-72
2021/11/24 10:11:40;;;;;;;37.50;19.02;;;7.00;99.90;;;;;;5033344;28;20112;-75
2021/11/24 10:14:06;;;;;;;36.83;18.48;;;7.00;99.90;;;;;;5033326;28;20032;-72
2021/11/24 10:16:34;;;;;;;31.13;17.75;;;7.00;99.90;;;;;;5033555;28;20021;-71
2021/11/24 10:19:04;;;;;;;28.50;16.00;;;7.10;99.90;;;;;;5033234;28;20026;-73
2021/11/24 10:21:30;;;;;;;28.17;15.48;;;7.20;99.90;;;;;;5033262;28;20029;-72
2021/11/24 10:24:03;;;;;;;27.65;14.50;;;7.30;99.90;;;;;;5033165;28;20483;-73
2021/11/24 10:26:35;;;;;;;27.02;15.70;;;7.30;99.90;;;;;;5033405;28;20075;-70
2021/11/24 10:29:07;;;;;;;26.60;15.25;;;7.20;99.90;;;;;;5033579;28;20093;-73
2021/11/24 10:31:41;;;;;;;26.08;14.68;;;7.20;99.90;;;;;;5033431;28;20022;-72
2021/11/24 10:34:14;;;;;;;23.27;13.82;;;7.30;99.90;;;;;;5033369;28;20472;-70
2021/11/24 10:37:08;;;;;;;27.67;14.75;;;7.30;99.90;;;;;;5031802;28;20025;-72
2021/11/24 10:39:48;;;;;;;27.40;15.05;;;7.30;99.90;;;;;;5033650;28;20017;-71
2021/11/24 10:42:24;;;;;;;26.52;14.70;;;7.30;99.90;;;;;;5033863;28;20025;-73
2021/11/24 10:44:52;;;;;;;27.92;15.48;;;7.30;99.90;;;;;;5035567;28;20116;-74
2021/11/24 10:47:19;;;;;;;24.52;14.23;;;7.30;99.90;;;;;;5037059;28;20030;-71
2021/11/24 10:49:52;;;;;;;26.35;16.63;;;7.30;99.90;;;;;;5036955;28;20083;-73
2021/11/24 10:52:22;;;;;;;28.58;15.00;;;7.30;99.90;;;;;;5037297;28;20053;-71
2021/11/24 10:55:04;;;;;;;30.07;15.13;;;7.30;99.90;;;;;;5036963;28;20049;-72
2021/11/24 10:57:31;;;;;;;29.77;16.00;;;7.30;99.90;;;;;;5037355;28;20018;-73
2021/11/24 11:00:03;;;;;;;28.90;14.25;;;7.30;99.90;;;;;;5036656;28;20080;-72
2021/11/24 11:02:46;;;;;;;27.33;14.40;;;7.20;99.90;;;;;;5037393;28;20026;-74
2021/11/24 11:05:18;;;;;;;25.38;13.98;;;7.20;99.90;;;;;;5037295;28;20080;-71
2021/11/24 11:07:55;;;;;;;28.75;15.45;;;7.20;99.90;;;;;;5036987;28;20100;-72
2021/11/24 11:10:40;;;;;;;26.40;14.20;;;7.20;99.90;;;;;;5036912;28;20084;-71
2021/11/24 11:13:15;;;;;;;28.27;14.93;;;7.20;99.90;;;;;;5037153;28;20021;-73
2021/11/24 11:15:44;;;;;;;26.98;14.70;;;7.20;99.90;;;;;;5036562;28;20033;-73
2021/11/24 11:18:11;;;;;;;26.90;15.45;;;7.20;99.90;;;;;;5036360;28;20022;-73
2021/11/24 11:20:43;;;;;;;28.60;14.95;;;7.20;99.90;;;;;;5036725;28;20057;-72
2021/11/24 11:23:26;;;;;;;25.33;14.25;;;7.30;99.90;;;;;;5036461;28;20100;-73
2021/11/24 11:25:52;;;;;;;28.10;14.27;;;7.30;99.90;;;;;;5036631;28;20035;-72
2021/11/24 11:28:19;;;;;;;27.55;14.57;;;7.40;99.90;;;;;;5036510;28;20025;-71
2021/11/24 11:30:47;;;;;;;24.02;13.07;;;7.40;99.90;;;;;;5036133;28;20045;-72
2021/11/24 11:33:14;;;;;;;27.55;15.57;;;7.40;99.90;;;;;;5036539;28;20022;-73
2021/11/24 11:35:42;;;;;;;26.27;14.98;;;7.40;99.90;;;;;;5036741;28;20025;-71
2021/11/24 11:38:08;;;;;;;25.52;14.90;;;7.40;99.90;;;;;;5036115;28;20021;-75
2021/11/24 11:40:40;;;;;;;26.30;13.95;;;7.50;99.90;;;;;;5036134;28;20391;-70
2021/11/24 11:43:08;;;;;;;25.52;14.23;;;7.50;99.90;;;;;;5036081;28;20033;-72
2021/11/24 11:45:36;;;;;;;27.65;15.55;;;7.50;99.90;;;;;;5035994;28;20025;-72
2021/11/24 11:48:04;;;;;;;27.75;14.55;;;7.60;99.90;;;;;;5035960;28;20092;-72
2021/11/24 11:50:49;;;;;;;26.38;14.60;;;7.60;99.90;;;;;;5036090;28;20029;-69
2021/11/24 11:53:18;;;;;;;26.45;15.10;;;7.60;99.90;;;;;;5035929;28;20025;-71
2021/11/24 11:56:04;;;;;;;24.30;14.18;;;7.70;99.90;;;;;;5035182;28;20499;-72
2021/11/24 11:58:30;;;;;;;26.77;15.23;;;7.80;99.90;;;;;;5035517;28;20029;-71
2021/11/24 12:01:07;;;;;;;24.23;13.63;;;7.90;99.90;;;;;;5035643;28;20414;-72
2021/11/24 12:03:54;;;;;;;24.25;12.25;;;8.00;99.90;;;;;;5035666;28;20458;-73
2021/11/24 12:06:25;;;;;;;21.20;12.43;;;8.00;99.90;;;;;;5035879;28;20036;-74
2021/11/24 12:09:06;;;;;;;21.42;12.30;;;8.10;99.90;;;;;;5036144;28;20033;-72
2021/11/24 12:12:12;;;;;;;19.95;11.02;;;8.20;99.90;;;;;;5035537;28;20531;-71
2021/11/24 12:14:46;;;;;;;23.75;11.93;;;8.20;99.90;;;;;;5035770;28;20104;-71
2021/11/24 12:17:33;;;;;;;19.92;11.40;;;8.30;99.90;;;;;;5035696;28;20028;-73
2021/11/24 12:20:10;;;;;;;21.70;11.93;;;8.30;99.90;;;;;;5035958;28;20048;-73
2021/11/24 12:28:24;;;;;;;21.00;11.30;;;8.50;99.90;;;;;;5035184;28;20098;-72
2021/11/24 12:30:53;;;;;;;18.65;10.57;;;8.50;99.90;;;;;;5033170;28;20034;-72
2021/11/24 12:33:28;;;;;;;20.25;11.25;;;8.60;99.90;;;;;;5035452;28;20071;-73
2021/11/24 12:35:57;;;;;;;18.30;9.70;;;8.60;99.90;;;;;;5035407;28;20036;-73
2021/11/24 12:38:26;;;;;;;18.57;9.80;;;8.70;99.90;;;;;;5035110;28;20029;-73
2021/11/24 12:40:53;;;;;;;18.50;9.80;;;8.70;99.90;;;;;;5035019;28;20105;-72
2021/11/24 12:43:22;;;;;;;16.65;8.43;;;8.80;99.90;;;;;;5034976;28;20083;-71
2021/11/24 12:46:29;;;;;;;15.60;9.25;;;8.80;99.90;;;;;;5034837;28;20025;-73
2021/11/24 12:48:57;;;;;;;17.08;9.20;;;8.80;99.90;;;;;;5021544;28;20043;-72